Time;durP1;ratioP1;P1;durP2;ratioP2;P2;SDS_P1;SDS_P2;PMS_P1;PMS_P2;Temp;Humidity;BMP_temperature;BMP_pressure;BME280_temperature;BME280_humidity;BME280_pressure;Samples;Min_cycle;Max_cycle;Signal;HPM_P1;HPM_P2
2021/09/04 00:02:14;;;;;;;35.92;18.35;;;;;;;;;;4346538;33;20132;-86
2021/09/04 00:04:40;;;;;;;31.67;18.12;;;;;;;;;;4347068;33;20135;-85
2021/09/04 00:07:06;;;;;;;37.97;17.92;;;;;;;;;;4347074;33;20131;-84
2021/09/04 00:09:32;;;;;;;33.80;19.00;;;;;;;;;;4333710;33;20203;-86
2021/09/04 00:12:03;;;;;;;34.63;18.70;;;;;;;;;;4333191;33;20164;-86
2021/09/04 00:14:31;;;;;;;37.20;18.98;;;;;;;;;;4346857;33;20158;-85
2021/09/04 00:16:56;;;;;;;33.67;19.10;;;;;;;;;;4346682;33;20136;-85
2021/09/04 00:19:27;;;;;;;33.20;18.08;;;;;;;;;;4333553;33;20589;-85
2021/09/04 00:21:52;;;;;;;33.95;17.85;;;;;;;;;;4334937;33;20167;-85
2021/09/04 00:24:32;;;;;;;41.55;19.42;;;;;;;;;;4334543;33;20568;-86
2021/09/04 00:26:57;;;;;;;32.63;18.65;;;;;;;;;;4347428;33;20537;-86
2021/09/04 00:32:20;;;;;;;35.33;19.23;;;;;;;;;;4340798;33;20152;-86
2021/09/04 00:34:51;;;;;;;34.47;18.33;;;;;;;;;;4342830;33;20639;-87
2021/09/04 00:37:17;;;;;;;36.55;18.62;;;;;;;;;;4356592;33;20166;-86
2021/09/04 00:39:42;;;;;;;32.90;18.02;;;;;;;;;;4355835;33;20160;-87
2021/09/04 00:42:08;;;;;;;36.13;18.15;;;;;;;;;;4356686;33;20136;-87
2021/09/04 00:44:33;;;;;;;34.33;18.62;;;;;;;;;;4359734;33;20151;-88
2021/09/04 00:47:03;;;;;;;37.30;19.12;;;;;;;;;;4349034;33;20144;-87
2021/09/04 00:49:28;;;;;;;40.25;18.33;;;;;;;;;;4359882;33;20166;-87
2021/09/04 00:52:03;;;;;;;35.33;17.87;;;;;;;;;;4360935;33;20136;-88
2021/09/04 00:54:31;;;;;;;34.42;18.73;;;;;;;;;;4361847;33;20143;-87
2021/09/04 00:56:59;;;;;;;34.55;18.45;;;;;;;;;;4340971;33;20164;-86
2021/09/04 00:59:28;;;;;;;38.25;19.00;;;;;;;;;;4333290;33;20498;-86
2021/09/04 01:02:03;;;;;;;35.78;17.87;;;;;;;;;;4347316;33;20143;-87
2021/09/04 01:04:36;;;;;;;40.38;19.37;;;;;;;;;;4334244;33;20189;-86
2021/09/04 01:07:27;;;;;;;;;;;;;;;;;;;;;
2021/09/04 01:09:56;;;;;;;33.25;17.42;;;;;;;;;;4340898;33;20190;-86
2021/09/04 01:12:29;;;;;;;38.55;17.87;;;;;;;;;;4346807;33;20156;-86
2021/09/04 01:14:58;;;;;;;37.10;17.50;;;;;;;;;;4346866;33;20467;-86
2021/09/04 01:17:29;;;;;;;34.10;18.52;;;;;;;;;;4346783;33;20223;-86
2021/09/04 01:19:59;;;;;;;34.33;16.77;;;;;;;;;;4346818;33;20459;-86
2021/09/04 01:22:29;;;;;;;33.90;17.48;;;;;;;;;;4356381;33;20139;-86
2021/09/04 01:25:02;;;;;;;33.35;17.83;;;;;;;;;;4348763;33;20186;-86
2021/09/04 01:27:30;;;;;;;33.53;17.98;;;;;;;;;;4346054;33;20128;-86
2021/09/04 01:29:55;;;;;;;33.38;17.73;;;;;;;;;;4332066;33;20190;-86
2021/09/04 01:32:34;;;;;;;35.70;18.20;;;;;;;;;;4346249;33;20496;-86
2021/09/04 01:35:03;;;;;;;31.37;17.15;;;;;;;;;;4340923;33;20127;-86
2021/09/04 01:37:32;;;;;;;37.90;17.58;;;;;;;;;;4345978;33;20166;-86
2021/09/04 01:40:01;;;;;;;33.72;18.15;;;;;;;;;;4345941;33;20546;-86
2021/09/04 01:42:33;;;;;;;35.95;18.75;;;;;;;;;;4346177;33;20164;-86
2021/09/04 01:45:02;;;;;;;38.95;18.20;;;;;;;;;;4347861;33;20131;-86
2021/09/04 01:47:27;;;;;;;33.45;17.77;;;;;;;;;;4337332;33;20181;-86
2021/09/04 01:49:56;;;;;;;37.65;17.15;;;;;;;;;;4346882;33;20163;-86
2021/09/04 01:52:25;;;;;;;33.75;17.17;;;;;;;;;;4346079;33;20199;-85
2021/09/04 01:54:50;;;;;;;34.50;18.60;;;;;;;;;;4345950;33;20155;-87
2021/09/04 01:57:16;;;;;;;39.08;18.40;;;;;;;;;;4359365;33;20427;-86
2021/09/04 01:59:47;;;;;;;36.05;17.42;;;;;;;;;;4337923;33;20632;-87
2021/09/04 02:02:14;;;;;;;35.42;18.60;;;;;;;;;;4333359;33;20163;-86
2021/09/04 02:04:39;;;;;;;36.95;18.50;;;;;;;;;;4333150;33;20237;-87
2021/09/04 02:07:07;;;;;;;37.42;17.42;;;;;;;;;;4333268;33;20175;-85
2021/09/04 02:09:33;;;;;;;30.88;16.55;;;;;;;;;;4346483;33;20144;-86
2021/09/04 02:12:00;;;;;;;34.47;17.73;;;;;;;;;;4332325;33;20229;-86
2021/09/04 02:14:28;;;;;;;37.22;18.42;;;;;;;;;;4346315;33;20161;-86
2021/09/04 02:16:59;;;;;;;32.47;18.42;;;;;;;;;;4346793;33;20167;-86
2021/09/04 02:19:29;;;;;;;37.17;17.33;;;;;;;;;;4335332;33;20242;-86
2021/09/04 02:21:57;;;;;;;40.88;18.70;;;;;;;;;;4335280;33;20511;-86
2021/09/04 02:24:29;;;;;;;30.27;16.85;;;;;;;;;;4346006;33;20491;-86
2021/09/04 02:27:18;;;;;;;38.20;18.10;;;;;;;;;;4332270;33;20498;-86
2021/09/04 02:29:44;;;;;;;35.00;16.52;;;;;;;;;;4346175;33;20167;-86
2021/09/04 02:32:09;;;;;;;37.13;18.62;;;;;;;;;;4347458;33;20156;-86
2021/09/04 02:34:37;;;;;;;29.12;16.50;;;;;;;;;;4335355;33;20151;-86
2021/09/04 02:37:02;;;;;;;31.62;15.85;;;;;;;;;;4334808;33;20171;-86
2021/09/04 02:39:30;;;;;;;34.22;17.45;;;;;;;;;;4335078;33;20175;-86
2021/09/04 02:41:56;;;;;;;33.38;16.70;;;;;;;;;;4334887;33;20570;-86
2021/09/04 02:44:23;;;;;;;38.03;18.90;;;;;;;;;;4348223;33;20175;-86
2021/09/04 02:46:51;;;;;;;40.50;17.37;;;;;;;;;;4348773;33;20135;-86
2021/09/04 02:49:20;;;;;;;39.20;17.73;;;;;;;;;;4347967;33;20480;-86
2021/09/04 02:51:48;;;;;;;38.58;17.75;;;;;;;;;;4347932;33;20166;-86
2021/09/04 02:54:40;;;;;;;37.53;18.30;;;;;;;;;;4348864;33;20161;-86
2021/09/04 02:57:08;;;;;;;39.38;18.55;;;;;;;;;;4332845;33;20643;-86
2021/09/04 02:59:33;;;;;;;36.15;17.85;;;;;;;;;;4347873;33;20131;-86
2021/09/04 03:02:01;;;;;;;35.00;17.00;;;;;;;;;;4334315;33;20205;-86
2021/09/04 03:04:31;;;;;;;38.75;18.45;;;;;;;;;;4348537;33;20155;-87
2021/09/04 03:06:57;;;;;;;38.17;17.25;;;;;;;;;;4348896;33;20151;-87
2021/09/04 03:09:25;;;;;;;34.70;16.77;;;;;;;;;;4334534;33;20174;-86
2021/09/04 03:11:50;;;;;;;37.95;17.00;;;;;;;;;;4334267;33;20521;-86
2021/09/04 03:14:26;;;;;;;34.65;16.70;;;;;;;;;;4347721;33;20209;-86
2021/09/04 03:16:57;;;;;;;36.65;18.08;;;;;;;;;;4334219;33;20194;-86
2021/09/04 03:19:23;;;;;;;42.05;18.00;;;;;;;;;;4334020;33;20163;-86
2021/09/04 03:21:48;;;;;;;36.00;17.60;;;;;;;;;;4347994;33;20162;-86
2021/09/04 03:24:24;;;;;;;33.88;16.98;;;;;;;;;;4334245;33;20269;-86
2021/09/04 03:26:49;;;;;;;39.17;17.27;;;;;;;;;;4334299;33;20561;-86
2021/09/04 03:29:23;;;;;;;35.75;17.50;;;;;;;;;;4347228;33;20182;-86
2021/09/04 03:31:58;;;;;;;;;;;;;;;;;;;;;
2021/09/04 03:34:27;;;;;;;37.17;17.70;;;;;;;;;;4348250;33;20536;-86
2021/09/04 03:36:55;;;;;;;37.40;19.15;;;;;;;;;;4347351;33;20166;-87
2021/09/04 03:39:38;;;;;;;41.83;20.52;;;;;;;;;;4347445;33;20171;-86
2021/09/04 03:42:06;;;;;;;41.63;22.05;;;;;;;;;;4334267;33;20190;-87
2021/09/04 03:44:34;;;;;;;50.47;21.65;;;;;;;;;;4347754;33;20195;-85
2021/09/04 03:46:59;;;;;;;51.78;24.65;;;;;;;;;;4333804;33;20607;-83
2021/09/04 03:49:41;;;;;;;57.20;27.90;;;;;;;;;;4347282;33;20152;-86
2021/09/04 03:52:09;;;;;;;69.20;32.45;;;;;;;;;;4334048;33;20167;-86
2021/09/04 03:54:34;;;;;;;65.12;30.50;;;;;;;;;;4346913;33;20143;-86
2021/09/04 03:57:02;;;;;;;65.55;29.30;;;;;;;;;;4347209;33;20223;-87
2021/09/04 03:59:31;;;;;;;53.47;24.58;;;;;;;;;;4347668;33;20136;-86
2021/09/04 04:01:59;;;;;;;49.92;22.45;;;;;;;;;;4347307;33;20168;-86
2021/09/04 04:04:28;;;;;;;48.00;23.40;;;;;;;;;;4334112;33;20537;-86
2021/09/04 04:07:13;;;;;;;43.42;20.95;;;;;;;;;;4347895;33;20140;-85
2021/09/04 04:09:44;;;;;;;31.87;17.83;;;;;;;;;;4333914;33;20235;-87
2021/09/04 04:12:10;;;;;;;48.08;19.75;;;;;;;;;;4346868;33;20595;-88
2021/09/04 04:14:44;;;;;;;41.08;19.40;;;;;;;;;;4347151;33;20148;-86
2021/09/04 04:17:12;;;;;;;44.85;20.15;;;;;;;;;;4333989;33;20550;-85
2021/09/04 04:19:42;;;;;;;35.95;18.42;;;;;;;;;;4347370;33;20162;-86
2021/09/04 04:22:08;;;;;;;38.78;17.60;;;;;;;;;;4333843;33;20156;-86
2021/09/04 04:24:43;;;;;;;38.13;18.98;;;;;;;;;;4346711;33;20161;-87
2021/09/04 04:27:16;;;;;;;40.40;18.70;;;;;;;;;;4347404;33;20143;-87
2021/09/04 04:29:58;;;;;;;44.88;19.45;;;;;;;;;;4333411;33;20195;-87
2021/09/04 04:32:27;;;;;;;42.85;20.08;;;;;;;;;;4333136;33;20152;-86
2021/09/04 04:34:52;;;;;;;41.50;19.98;;;;;;;;;;4347291;33;20135;-86
2021/09/04 04:37:31;;;;;;;43.15;19.77;;;;;;;;;;4347403;33;20202;-86
2021/09/04 04:39:56;;;;;;;43.78;20.70;;;;;;;;;;4334443;33;20222;-86
2021/09/04 04:42:22;;;;;;;46.75;22.27;;;;;;;;;;4347525;33;20148;-86
2021/09/04 04:44:50;;;;;;;44.95;21.23;;;;;;;;;;4333621;33;20159;-86
2021/09/04 04:47:15;;;;;;;40.72;21.08;;;;;;;;;;4346889;33;20167;-85
2021/09/04 04:49:43;;;;;;;45.95;21.67;;;;;;;;;;4347919;33;20259;-84
2021/09/04 04:52:09;;;;;;;47.83;21.15;;;;;;;;;;4347658;33;20135;-85
2021/09/04 04:54:36;;;;;;;45.28;21.60;;;;;;;;;;4346531;33;20185;-85
2021/09/04 04:57:02;;;;;;;42.13;19.25;;;;;;;;;;4347139;33;20167;-87
2021/09/04 04:59:30;;;;;;;45.03;19.98;;;;;;;;;;4334480;33;20179;-86
2021/09/04 05:01:57;;;;;;;39.50;19.87;;;;;;;;;;4346990;33;20206;-86
2021/09/04 05:04:26;;;;;;;37.05;20.15;;;;;;;;;;4346369;33;20127;-86
2021/09/04 05:06:51;;;;;;;43.70;21.50;;;;;;;;;;4346002;33;20167;-85
2021/09/04 05:09:16;;;;;;;37.83;18.35;;;;;;;;;;4346099;33;20135;-86
2021/09/04 05:11:47;;;;;;;37.80;19.20;;;;;;;;;;4345979;33;20140;-85
2021/09/04 05:14:26;;;;;;;44.85;20.10;;;;;;;;;;4346128;33;20127;-86
2021/09/04 05:16:52;;;;;;;42.53;19.95;;;;;;;;;;4332921;33;20257;-86
2021/09/04 05:19:17;;;;;;;44.72;20.62;;;;;;;;;;4346288;33;20599;-86
2021/09/04 05:21:45;;;;;;;45.75;21.12;;;;;;;;;;4332362;33;20542;-87
2021/09/04 05:24:14;;;;;;;46.15;21.73;;;;;;;;;;4345682;33;20139;-87
2021/09/04 05:26:39;;;;;;;40.58;19.42;;;;;;;;;;4332655;33;20152;-85
2021/09/04 05:29:04;;;;;;;44.10;21.42;;;;;;;;;;4332249;33;20194;-86
2021/09/04 05:31:30;;;;;;;45.42;21.70;;;;;;;;;;4352644;33;20162;-85
2021/09/04 05:34:03;;;;;;;41.90;21.12;;;;;;;;;;4344216;33;20162;-85
2021/09/04 05:36:31;;;;;;;39.33;19.80;;;;;;;;;;4338214;33;20186;-85
2021/09/04 05:39:05;;;;;;;36.70;19.05;;;;;;;;;;4345989;33;20160;-86
2021/09/04 05:41:35;;;;;;;35.78;19.52;;;;;;;;;;4346272;33;20189;-86
2021/09/04 05:44:00;;;;;;;38.20;18.85;;;;;;;;;;4346117;33;20185;-86
2021/09/04 05:46:28;;;;;;;41.28;19.58;;;;;;;;;;4346218;33;20148;-85
2021/09/04 05:48:53;;;;;;;42.53;19.40;;;;;;;;;;4345874;33;20178;-85
2021/09/04 05:51:22;;;;;;;36.60;18.55;;;;;;;;;;4345890;33;20513;-85
2021/09/04 05:53:47;;;;;;;43.78;19.65;;;;;;;;;;4345838;33;20198;-86
2021/09/04 05:56:21;;;;;;;40.42;18.08;;;;;;;;;;4345402;33;20206;-85
2021/09/04 05:58:50;;;;;;;38.65;19.52;;;;;;;;;;4345627;33;20135;-86
2021/09/04 06:01:15;;;;;;;33.35;16.40;;;;;;;;;;4345777;33;20218;-86
2021/09/04 06:03:52;;;;;;;35.95;18.17;;;;;;;;;;4345703;33;20757;-85
2021/09/04 06:06:17;;;;;;;36.47;16.58;;;;;;;;;;4334505;33;20201;-85
2021/09/04 06:08:48;;;;;;;40.28;18.95;;;;;;;;;;4334836;33;20174;-86
2021/09/04 06:11:24;;;;;;;45.85;18.62;;;;;;;;;;4334712;33;20163;-86
2021/09/04 06:13:59;;;;;;;36.67;17.52;;;;;;;;;;4349437;33;20119;-86
2021/09/04 06:16:34;;;;;;;35.63;17.20;;;;;;;;;;4352812;33;20135;-86
2021/09/04 06:18:59;;;;;;;40.17;18.17;;;;;;;;;;4351839;33;20190;-86
2021/09/04 06:21:27;;;;;;;33.28;16.85;;;;;;;;;;4338348;33;20178;-86
2021/09/04 06:23:53;;;;;;;41.60;18.10;;;;;;;;;;4339222;33;20159;-86
2021/09/04 06:26:22;;;;;;;31.37;16.23;;;;;;;;;;4352462;33;20131;-85
2021/09/04 06:28:50;;;;;;;35.88;17.52;;;;;;;;;;4349811;33;20147;-86
2021/09/04 06:31:24;;;;;;;32.58;16.25;;;;;;;;;;4348125;33;20144;-87
2021/09/04 06:33:49;;;;;;;31.48;15.88;;;;;;;;;;4334730;33;20185;-87
2021/09/04 06:36:17;;;;;;;27.77;15.85;;;;;;;;;;4335171;33;20514;-87
2021/09/04 06:38:43;;;;;;;32.25;15.80;;;;;;;;;;4334381;33;20198;-85
2021/09/04 06:41:11;;;;;;;28.27;15.25;;;;;;;;;;4348667;33;20139;-86
2021/09/04 06:43:37;;;;;;;28.45;16.25;;;;;;;;;;4348605;33;20546;-87
2021/09/04 06:46:02;;;;;;;27.73;15.27;;;;;;;;;;4348273;33;20198;-85
2021/09/04 06:48:28;;;;;;;31.50;16.50;;;;;;;;;;4348124;33;20139;-86
2021/09/04 06:50:55;;;;;;;26.67;15.73;;;;;;;;;;4334828;33;20589;-86
2021/09/04 06:53:25;;;;;;;27.83;15.85;;;;;;;;;;4348354;33;20169;-85
2021/09/04 06:55:50;;;;;;;27.70;15.32;;;;;;;;;;4334652;33;20167;-88
2021/09/04 06:58:21;;;;;;;28.38;15.13;;;;;;;;;;4335057;33;20647;-87
2021/09/04 07:00:51;;;;;;;26.73;14.87;;;;;;;;;;4334679;33;20155;-86
2021/09/04 07:03:17;;;;;;;29.58;17.02;;;;;;;;;;4348404;33;20140;-86
2021/09/04 07:05:42;;;;;;;27.45;15.20;;;;;;;;;;4334474;33;20164;-85
2021/09/04 07:08:07;;;;;;;27.27;15.05;;;;;;;;;;4347521;33;20147;-84
2021/09/04 07:10:32;;;;;;;24.23;14.02;;;;;;;;;;4335140;33;20215;-85
2021/09/04 07:13:00;;;;;;;24.40;14.65;;;;;;;;;;4345201;33;20147;-86
2021/09/04 07:16:12;;;;;;;24.00;14.48;;;;;;;;;;4346219;33;20481;-85
2021/09/04 07:18:31;;;;;;;26.80;14.87;;;;;;;;;;4351187;33;20156;-85
2021/09/04 07:21:12;;;;;;;22.08;12.82;;;;;;;;;;4357686;33;20166;-85
2021/09/04 07:23:52;;;;;;;24.85;13.45;;;;;;;;;;4357777;33;20184;-84
2021/09/04 07:26:17;;;;;;;24.00;11.90;;;;;;;;;;4354401;33;20154;-84
2021/09/04 07:28:42;;;;;;;26.00;12.73;;;;;;;;;;4350993;33;20143;-84
2021/09/04 07:31:08;;;;;;;22.05;12.98;;;;;;;;;;4351365;33;20167;-85
2021/09/04 07:33:33;;;;;;;22.37;12.75;;;;;;;;;;4350350;33;20131;-84
2021/09/04 07:35:58;;;;;;;21.20;12.68;;;;;;;;;;4349623;33;20135;-84
2021/09/04 07:38:24;;;;;;;21.15;12.40;;;;;;;;;;4337520;33;20243;-83
2021/09/04 07:40:53;;;;;;;20.40;11.90;;;;;;;;;;4348228;33;20205;-85
2021/09/04 07:43:18;;;;;;;19.50;12.07;;;;;;;;;;4347892;33;20185;-85
2021/09/04 07:45:43;;;;;;;22.08;12.77;;;;;;;;;;4347955;33;20135;-85
2021/09/04 07:48:09;;;;;;;17.40;11.10;;;;;;;;;;4347854;33;20144;-84
2021/09/04 07:50:35;;;;;;;20.67;12.45;;;;;;;;;;4347702;33;20194;-85
2021/09/04 07:53:00;;;;;;;18.92;12.60;;;;;;;;;;4347840;33;20147;-85
2021/09/04 07:55:27;;;;;;;19.17;11.68;;;;;;;;;;4347979;33;20139;-85
2021/09/04 07:57:52;;;;;;;19.17;11.52;;;;;;;;;;4347404;33;20179;-85
2021/09/04 08:00:20;;;;;;;21.25;11.55;;;;;;;;;;4338047;33;20256;-85
2021/09/04 08:02:45;;;;;;;18.73;10.88;;;;;;;;;;4333182;33;20537;-83
2021/09/04 08:05:11;;;;;;;18.08;10.68;;;;;;;;;;4318677;33;20179;-84
2021/09/04 08:07:36;;;;;;;21.17;11.77;;;;;;;;;;4321296;33;20163;-86
2021/09/04 08:10:06;;;;;;;19.02;11.15;;;;;;;;;;4333262;33;20229;-84
2021/09/04 08:12:31;;;;;;;19.75;11.45;;;;;;;;;;4333360;33;20174;-84
2021/09/04 08:15:01;;;;;;;21.30;12.13;;;;;;;;;;4346995;33;20140;-86
2021/09/04 08:17:32;;;;;;;19.50;11.15;;;;;;;;;;4333530;33;20179;-86
2021/09/04 08:19:58;;;;;;;21.60;12.50;;;;;;;;;;4333898;33;20156;-85
2021/09/04 08:22:25;;;;;;;17.27;11.68;;;;;;;;;;4347122;33;20520;-84
2021/09/04 08:24:50;;;;;;;19.92;12.30;;;;;;;;;;4332898;33;20155;-85
2021/09/04 08:27:16;;;;;;;18.75;12.32;;;;;;;;;;4347479;33;20143;-86
2021/09/04 08:29:41;;;;;;;21.48;12.20;;;;;;;;;;4346355;33;20292;-86
2021/09/04 08:32:09;;;;;;;20.25;11.55;;;;;;;;;;4346831;33;20139;-85
2021/09/04 08:34:38;;;;;;;19.15;12.05;;;;;;;;;;4346889;33;20135;-86
2021/09/04 08:37:04;;;;;;;18.77;11.27;;;;;;;;;;4333077;33;20186;-85
2021/09/04 08:39:29;;;;;;;17.10;11.50;;;;;;;;;;4346253;33;20160;-84
2021/09/04 08:41:54;;;;;;;17.87;11.25;;;;;;;;;;4346568;33;20169;-85
2021/09/04 08:44:23;;;;;;;18.17;11.05;;;;;;;;;;4350128;33;20496;-87
2021/09/04 08:46:57;;;;;;;19.60;11.85;;;;;;;;;;4341932;33;20159;-82
2021/09/04 08:49:23;;;;;;;15.13;10.43;;;;;;;;;;4349850;33;20473;-85
2021/09/04 08:51:48;;;;;;;19.35;11.52;;;;;;;;;;4333070;33;20171;-85
2021/09/04 08:54:14;;;;;;;21.83;11.93;;;;;;;;;;4332534;33;20226;-84
2021/09/04 08:56:42;;;;;;;25.52;13.23;;;;;;;;;;4347008;33;20132;-84
2021/09/04 08:59:07;;;;;;;17.70;10.68;;;;;;;;;;4347607;33;20158;-86
2021/09/04 09:01:32;;;;;;;17.60;11.18;;;;;;;;;;4334425;33;20226;-84
2021/09/04 09:04:04;;;;;;;20.40;12.30;;;;;;;;;;4349872;33;20218;-86
2021/09/04 09:06:33;;;;;;;20.58;12.37;;;;;;;;;;4350544;33;20479;-87
2021/09/04 09:08:59;;;;;;;19.50;12.00;;;;;;;;;;4350462;33;20227;-85
2021/09/04 09:11:24;;;;;;;19.65;11.88;;;;;;;;;;4351657;33;20136;-86
2021/09/04 09:13:53;;;;;;;18.65;11.57;;;;;;;;;;4358397;33;20112;-82
2021/09/04 09:16:19;;;;;;;22.15;11.95;;;;;;;;;;4357941;33;20175;-85
2021/09/04 09:18:55;;;;;;;19.17;11.85;;;;;;;;;;4345753;33;20155;-86
2021/09/04 09:21:27;;;;;;;20.25;11.93;;;;;;;;;;4342945;33;20154;-86
2021/09/04 09:24:10;;;;;;;20.95;12.07;;;;;;;;;;4344976;33;20226;-87
2021/09/04 09:26:56;;;;;;;20.70;12.73;;;;;;;;;;4341994;33;20493;-89
2021/09/04 09:29:26;;;;;;;20.73;12.30;;;;;;;;;;4339323;33;20247;-84
2021/09/04 09:32:11;;;;;;;17.52;11.15;;;;;;;;;;4350009;33;20132;-85
2021/09/04 09:34:37;;;;;;;18.25;11.35;;;;;;;;;;4352105;33;20155;-86
2021/09/04 09:37:03;;;;;;;19.30;12.00;;;;;;;;;;4351593;33;20211;-85
2021/09/04 09:39:29;;;;;;;18.70;12.00;;;;;;;;;;4348875;33;20190;-85
2021/09/04 09:42:00;;;;;;;20.00;11.82;;;;;;;;;;4332824;33;20190;-85
2021/09/04 09:44:27;;;;;;;19.70;10.93;;;;;;;;;;4334072;33;20155;-86
2021/09/04 09:46:57;;;;;;;18.52;11.10;;;;;;;;;;4354856;33;20218;-87
2021/09/04 09:49:29;;;;;;;17.10;11.35;;;;;;;;;;4351142;33;20187;-85
2021/09/04 09:52:00;;;;;;;20.92;12.32;;;;;;;;;;4345871;33;20151;-84
2021/09/04 09:54:27;;;;;;;20.33;11.15;;;;;;;;;;4346522;33;20456;-85
2021/09/04 09:56:57;;;;;;;22.73;11.90;;;;;;;;;;4332390;33;20221;-85
2021/09/04 09:59:31;;;;;;;19.60;13.15;;;;;;;;;;4346012;33;20542;-85
2021/09/04 10:01:57;;;;;;;19.33;11.88;;;;;;;;;;4346019;33;20150;-84
2021/09/04 10:04:31;;;;;;;19.80;11.80;;;;;;;;;;4345540;33;20191;-85
2021/09/04 10:06:56;;;;;;;20.40;11.38;;;;;;;;;;4346267;33;20128;-85
2021/09/04 10:09:53;;;;;;;19.30;11.18;;;;;;;;;;4345363;33;20210;-86
2021/09/04 10:12:19;;;;;;;19.83;12.18;;;;;;;;;;4326005;33;20159;-84
2021/09/04 10:14:50;;;;;;;18.90;12.15;;;;;;;;;;4345380;33;20174;-86
2021/09/04 10:17:18;;;;;;;18.67;11.95;;;;;;;;;;4345196;33;20146;-86
2021/09/04 10:19:44;;;;;;;21.83;12.50;;;;;;;;;;4345280;33;20222;-85
2021/09/04 10:22:12;;;;;;;20.60;12.37;;;;;;;;;;4345084;33;20527;-85
2021/09/04 10:24:43;;;;;;;18.35;12.37;;;;;;;;;;4345595;33;20140;-84
2021/09/04 10:27:15;;;;;;;21.25;11.73;;;;;;;;;;4345827;33;20501;-84
2021/09/04 10:29:41;;;;;;;18.65;13.00;;;;;;;;;;4346086;33;20136;-84
2021/09/04 10:32:07;;;;;;;21.02;12.63;;;;;;;;;;4331955;33;20175;-85
2021/09/04 10:34:33;;;;;;;20.10;13.20;;;;;;;;;;4331916;33;20182;-82
2021/09/04 10:37:18;;;;;;;18.23;12.02;;;;;;;;;;4331874;33;20183;-84
2021/09/04 10:39:49;;;;;;;22.23;12.82;;;;;;;;;;4345599;33;20574;-85
2021/09/04 10:42:22;;;;;;;22.25;12.20;;;;;;;;;;4346003;33;20135;-84
2021/09/04 10:44:52;;;;;;;17.83;12.27;;;;;;;;;;4346210;33;20128;-84
2021/09/04 10:47:18;;;;;;;22.27;12.98;;;;;;;;;;4345696;33;20473;-84
2021/09/04 10:49:44;;;;;;;21.10;13.48;;;;;;;;;;4345208;33;20139;-83
2021/09/04 10:52:10;;;;;;;21.52;12.73;;;;;;;;;;4346238;33;20161;-84
2021/09/04 10:54:39;;;;;;;19.83;12.27;;;;;;;;;;4334394;33;20488;-84
2021/09/04 10:57:30;;;;;;;20.33;12.40;;;;;;;;;;4347540;33;20194;-84
2021/09/04 11:00:16;;;;;;;20.37;12.55;;;;;;;;;;4319282;33;20182;-85
2021/09/04 11:02:48;;;;;;;21.20;12.43;;;;;;;;;;4348339;33;20132;-85
2021/09/04 11:05:32;;;;;;;19.70;12.30;;;;;;;;;;4333878;33;20531;-84
2021/09/04 11:08:01;;;;;;;18.17;11.88;;;;;;;;;;4348378;33;20139;-84
2021/09/04 11:10:27;;;;;;;15.68;11.00;;;;;;;;;;4334134;33;20167;-86
2021/09/04 11:13:07;;;;;;;15.45;10.88;;;;;;;;;;4334076;33;20195;-84
2021/09/04 11:15:36;;;;;;;16.48;11.05;;;;;;;;;;4334440;33;20163;-85
2021/09/04 11:18:01;;;;;;;15.75;10.30;;;;;;;;;;4348110;33;20151;-86
2021/09/04 11:20:27;;;;;;;14.85;10.88;;;;;;;;;;4347171;33;20619;-84
2021/09/04 11:22:53;;;;;;;14.25;10.50;;;;;;;;;;4347906;33;20486;-84
2021/09/04 11:25:21;;;;;;;14.73;11.02;;;;;;;;;;4347503;33;20132;-86
2021/09/04 11:27:47;;;;;;;18.12;10.77;;;;;;;;;;4333488;33;20164;-84
2021/09/04 11:30:18;;;;;;;15.10;10.85;;;;;;;;;;4348043;33;20220;-84
2021/09/04 11:32:46;;;;;;;17.62;11.43;;;;;;;;;;4346945;33;20135;-84
2021/09/04 11:35:15;;;;;;;16.05;10.95;;;;;;;;;;4347422;33;20163;-84
2021/09/04 11:37:41;;;;;;;16.20;11.15;;;;;;;;;;4347354;33;20202;-85
2021/09/04 11:40:25;;;;;;;16.98;10.50;;;;;;;;;;4347700;33;20522;-84
2021/09/04 11:42:51;;;;;;;13.07;9.98;;;;;;;;;;4333780;33;20229;-84
2021/09/04 11:45:19;;;;;;;14.93;10.80;;;;;;;;;;4347072;33;20553;-84
2021/09/04 11:47:45;;;;;;;13.70;10.40;;;;;;;;;;4347828;33;20139;-84
2021/09/04 11:50:21;;;;;;;13.55;10.07;;;;;;;;;;4347430;33;20565;-85
2021/09/04 11:52:50;;;;;;;11.50;9.70;;;;;;;;;;4347704;33;20219;-84
2021/09/04 11:55:18;;;;;;;14.55;10.48;;;;;;;;;;4347288;33;20178;-85
2021/09/04 11:57:44;;;;;;;12.98;9.90;;;;;;;;;;4346866;33;20174;-86
2021/09/04 12:00:11;;;;;;;14.75;10.45;;;;;;;;;;4347203;33;20214;-84
2021/09/04 12:02:41;;;;;;;15.55;10.32;;;;;;;;;;4333183;33;20652;-84
2021/09/04 12:05:08;;;;;;;15.30;10.30;;;;;;;;;;4333990;33;20222;-84
2021/09/04 12:07:34;;;;;;;13.98;9.85;;;;;;;;;;4347255;33;20136;-84
2021/09/04 12:10:10;;;;;;;14.30;10.68;;;;;;;;;;4321423;33;20206;-84
2021/09/04 12:12:36;;;;;;;14.43;10.05;;;;;;;;;;4333759;33;20159;-84
2021/09/04 12:15:02;;;;;;;14.07;10.63;;;;;;;;;;4347445;33;20144;-83
2021/09/04 12:17:27;;;;;;;14.25;10.15;;;;;;;;;;4347132;33;20170;-85
2021/09/04 12:19:53;;;;;;;15.18;10.02;;;;;;;;;;4346950;33;20132;-83
2021/09/04 12:22:29;;;;;;;13.90;10.07;;;;;;;;;;4333403;33;20460;-84
2021/09/04 12:24:54;;;;;;;13.73;10.77;;;;;;;;;;4333377;33;20202;-83
2021/09/04 12:27:34;;;;;;;13.88;10.25;;;;;;;;;;4346676;33;20539;-84
2021/09/04 12:30:00;;;;;;;12.55;9.52;;;;;;;;;;4333141;33;20174;-84
2021/09/04 12:32:33;;;;;;;11.77;8.65;;;;;;;;;;4346341;33;20131;-85
2021/09/04 12:34:59;;;;;;;13.02;9.77;;;;;;;;;;4346090;33;20140;-85
2021/09/04 12:37:25;;;;;;;12.02;9.20;;;;;;;;;;4346222;33;20163;-84
2021/09/04 12:39:50;;;;;;;15.15;10.20;;;;;;;;;;4345997;33;20497;-84
2021/09/04 12:42:16;;;;;;;11.27;9.18;;;;;;;;;;4346869;33;20135;-85
2021/09/04 12:44:42;;;;;;;10.43;8.93;;;;;;;;;;4352468;33;20211;-85
2021/09/04 12:47:08;;;;;;;12.65;9.70;;;;;;;;;;4346994;33;20147;-84
2021/09/04 12:49:34;;;;;;;14.38;9.75;;;;;;;;;;4346140;33;20583;-84
2021/09/04 12:52:01;;;;;;;12.27;9.40;;;;;;;;;;4346470;33;20174;-84
2021/09/04 12:54:31;;;;;;;12.90;9.18;;;;;;;;;;4346580;33;20474;-84
2021/09/04 12:57:11;;;;;;;13.38;10.05;;;;;;;;;;4346277;33;20171;-85
2021/09/04 12:59:41;;;;;;;14.23;10.23;;;;;;;;;;4332623;33;20181;-86
2021/09/04 13:02:08;;;;;;;12.65;9.65;;;;;;;;;;4346108;33;20147;-85
2021/09/04 13:04:33;;;;;;;12.40;9.10;;;;;;;;;;4346218;33;20179;-85
2021/09/04 13:06:58;;;;;;;12.13;9.63;;;;;;;;;;4346460;33;20158;-84
2021/09/04 13:09:23;;;;;;;14.55;9.73;;;;;;;;;;4346396;33;20144;-85
2021/09/04 13:11:49;;;;;;;12.77;9.18;;;;;;;;;;4346267;33;20131;-85
2021/09/04 13:14:14;;;;;;;10.65;8.63;;;;;;;;;;4345806;33;20166;-85
2021/09/04 13:16:39;;;;;;;11.77;9.20;;;;;;;;;;4332144;33;20159;-84
2021/09/04 13:19:05;;;;;;;11.07;9.40;;;;;;;;;;4346458;33;20228;-84
2021/09/04 13:21:30;;;;;;;13.25;9.00;;;;;;;;;;4345728;33;20265;-84
2021/09/04 13:23:55;;;;;;;13.37;10.30;;;;;;;;;;4332696;33;20167;-85
2021/09/04 13:26:20;;;;;;;13.85;9.30;;;;;;;;;;4346295;33;20650;-85
2021/09/04 13:28:46;;;;;;;15.65;9.55;;;;;;;;;;4345719;33;20159;-86
2021/09/04 13:31:13;;;;;;;13.35;9.27;;;;;;;;;;4332259;33;20163;-84
2021/09/04 13:33:38;;;;;;;11.98;8.73;;;;;;;;;;4332075;33;20163;-86
2021/09/04 13:36:04;;;;;;;12.07;8.83;;;;;;;;;;4346199;33;20230;-84
2021/09/04 13:38:30;;;;;;;11.75;9.60;;;;;;;;;;4345685;33;20163;-84
2021/09/04 13:40:55;;;;;;;14.18;9.77;;;;;;;;;;4346205;33;20486;-84
2021/09/04 13:43:29;;;;;;;12.40;8.77;;;;;;;;;;4345835;33;20161;-84
2021/09/04 13:45:55;;;;;;;11.07;9.25;;;;;;;;;;4345681;33;20135;-84
2021/09/04 13:48:20;;;;;;;13.20;8.93;;;;;;;;;;4345777;33;20219;-84
2021/09/04 13:50:46;;;;;;;11.40;8.77;;;;;;;;;;4331961;33;20509;-84
2021/09/04 13:53:13;;;;;;;10.85;8.60;;;;;;;;;;4345406;33;20165;-84
2021/09/04 13:55:39;;;;;;;11.75;9.10;;;;;;;;;;4345177;33;20427;-86
2021/09/04 13:58:04;;;;;;;13.40;8.63;;;;;;;;;;4345674;33;20218;-84
2021/09/04 14:00:29;;;;;;;9.68;7.95;;;;;;;;;;4345823;33;20132;-83
2021/09/04 14:02:55;;;;;;;10.52;8.30;;;;;;;;;;4332555;33;20159;-84
2021/09/04 14:05:20;;;;;;;10.27;7.75;;;;;;;;;;4346055;33;20140;-83
2021/09/04 14:07:45;;;;;;;11.10;8.40;;;;;;;;;;4345675;33;20136;-83
2021/09/04 14:10:10;;;;;;;11.00;7.73;;;;;;;;;;4346010;33;20139;-83
2021/09/04 14:12:39;;;;;;;9.48;7.97;;;;;;;;;;4332700;33;20671;-83
2021/09/04 14:15:04;;;;;;;9.88;8.00;;;;;;;;;;4346233;33;20140;-84
2021/09/04 14:17:30;;;;;;;11.82;8.45;;;;;;;;;;4345335;33;20203;-83
2021/09/04 14:19:55;;;;;;;11.02;8.70;;;;;;;;;;4346032;33;20132;-83
2021/09/04 14:22:20;;;;;;;11.75;8.45;;;;;;;;;;4346000;33;20147;-84
2021/09/04 14:24:45;;;;;;;11.07;8.48;;;;;;;;;;4345263;33;20158;-84
2021/09/04 14:27:11;;;;;;;10.27;7.83;;;;;;;;;;4333374;33;20168;-84
2021/09/04 14:29:55;;;;;;;10.27;7.43;;;;;;;;;;4347738;33;20196;-83
2021/09/04 14:32:21;;;;;;;11.12;9.13;;;;;;;;;;4333813;33;20562;-83
2021/09/04 14:34:55;;;;;;;12.05;8.23;;;;;;;;;;4347918;33;20139;-83